createdAt,value
2023-04-12T00:00:48.471Z,9.60
2023-04-12T00:03:20.434Z,8.80
2023-04-12T00:05:48.666Z,8.80
2023-04-12T00:08:17.508Z,8.50
2023-04-12T00:10:44.840Z,8.40
2023-04-12T00:13:12.202Z,9.00
2023-04-12T00:15:39.443Z,8.50
2023-04-12T00:18:06.849Z,8.60
2023-04-12T00:20:34.303Z,8.30
2023-04-12T00:23:02.458Z,8.80
2023-04-12T00:25:29.851Z,8.90
2023-04-12T00:27:57.361Z,8.80
2023-04-12T00:30:25.757Z,8.60
2023-04-12T00:35:21.061Z,8.30
2023-04-12T00:37:48.637Z,8.60
2023-04-12T00:40:16.022Z,8.60
2023-04-12T00:45:15.604Z,8.60
2023-04-12T00:47:44.033Z,9.00
2023-04-12T00:50:11.975Z,8.60
2023-04-12T00:52:40.234Z,8.50
2023-04-12T00:55:09.928Z,8.60
2023-04-12T00:57:39.376Z,8.60
2023-04-12T01:00:12.567Z,8.30
2023-04-12T01:02:51.143Z,8.50
2023-04-12T01:05:22.507Z,8.60
2023-04-12T01:08:05.068Z,8.50
2023-04-12T01:11:01.585Z,8.50
2023-04-12T01:13:40.987Z,8.60
2023-04-12T01:16:30.975Z,9.70
2023-04-12T01:19:04.956Z,8.50
2023-04-12T01:21:51.974Z,9.40
2023-04-12T01:24:45.545Z,8.60
2023-04-12T01:27:42.379Z,8.70
2023-04-12T01:30:12.938Z,8.50
2023-04-12T01:32:42.912Z,8.40
2023-04-12T01:35:11.673Z,8.40
2023-04-12T01:37:40.285Z,8.20
2023-04-12T01:40:09.310Z,8.70
2023-04-12T01:42:36.701Z,8.30
2023-04-12T01:45:04.300Z,8.70
2023-04-12T01:47:32.764Z,8.10
2023-04-12T01:50:08.395Z,8.20
2023-04-12T01:52:41.930Z,8.20
2023-04-12T01:55:10.816Z,8.40
2023-04-12T01:57:39.970Z,8.20
2023-04-12T02:00:10.927Z,8.40
2023-04-12T02:02:42.180Z,8.40
2023-04-12T02:05:10.908Z,9.30
2023-04-12T02:07:38.738Z,8.10
2023-04-12T02:10:06.445Z,9.10
2023-04-12T02:12:33.856Z,8.30
2023-04-12T02:15:03.772Z,8.20
2023-04-12T02:17:31.263Z,8.20
2023-04-12T02:19:58.837Z,8.10
2023-04-12T02:22:27.253Z,8.20
2023-04-12T02:24:54.838Z,8.20
2023-04-12T02:27:22.122Z,8.20
2023-04-12T02:29:50.151Z,8.60
2023-04-12T02:32:18.123Z,8.20
2023-04-12T02:34:51.312Z,8.30
2023-04-12T02:37:22.165Z,8.30
2023-04-12T02:42:17.200Z,8.30
2023-04-12T02:44:47.935Z,8.30
2023-04-12T02:47:15.933Z,8.30
2023-04-12T02:49:47.120Z,8.20
2023-04-12T02:52:17.334Z,8.10
2023-04-12T02:55:01.866Z,8.00
2023-04-12T02:57:30.179Z,8.30
2023-04-12T03:02:41.251Z,8.00
2023-04-12T03:05:14.678Z,8.10
2023-04-12T03:07:44.434Z,7.60
2023-04-12T03:10:12.750Z,8.00
2023-04-12T03:12:47.859Z,7.90
2023-04-12T03:15:18.003Z,7.90
2023-04-12T03:17:54.876Z,7.80
2023-04-12T03:20:28.353Z,7.90
2023-04-12T03:23:08.244Z,7.80
2023-04-12T03:25:38.718Z,7.60
2023-04-12T03:28:23.439Z,7.70
2023-04-12T03:30:53.051Z,7.30
2023-04-12T03:33:24.394Z,7.60
2023-04-12T03:35:56.229Z,8.80
2023-04-12T03:38:24.017Z,7.50
2023-04-12T03:43:27.786Z,7.50
2023-04-12T03:45:55.933Z,8.20
2023-04-12T03:48:26.132Z,7.40
2023-04-12T03:50:54.614Z,7.10
2023-04-12T03:53:23.686Z,5.90
2023-04-12T03:55:51.357Z,7.30
2023-04-12T03:58:20.252Z,7.90
2023-04-12T04:00:49.157Z,7.60
2023-04-12T04:03:16.985Z,7.20
2023-04-12T04:05:51.132Z,7.10
2023-04-12T04:10:51.675Z,7.00
2023-04-12T04:13:20.969Z,7.00
2023-04-12T04:15:58.899Z,7.00
2023-04-12T04:18:27.644Z,7.00
2023-04-12T04:20:55.187Z,6.80
2023-04-12T04:23:23.438Z,6.80
2023-04-12T04:25:53.398Z,6.80
2023-04-12T04:28:22.225Z,6.80
2023-04-12T04:30:51.646Z,6.80
2023-04-12T04:35:48.954Z,6.60
2023-04-12T04:38:27.988Z,6.60
2023-04-12T04:41:05.072Z,6.60
2023-04-12T04:43:46.894Z,6.50
2023-04-12T04:48:44.546Z,6.40
2023-04-12T04:53:40.819Z,6.40
2023-04-12T04:56:11.772Z,6.30
2023-04-12T04:58:39.288Z,8.30
2023-04-12T05:01:07.768Z,6.60
2023-04-12T05:03:37.463Z,6.40
2023-04-12T05:06:05.376Z,6.30
2023-04-12T05:08:34.395Z,6.20
2023-04-12T05:11:01.860Z,6.70
2023-04-12T05:15:57.640Z,6.10
2023-04-12T05:18:24.972Z,8.50
2023-04-12T05:20:52.938Z,6.00
2023-04-12T05:23:20.604Z,6.10
2023-04-12T05:25:50.105Z,6.10
2023-04-12T05:28:19.200Z,6.50
2023-04-12T05:30:46.740Z,6.00
2023-04-12T05:35:47.249Z,6.00
2023-04-12T05:38:14.532Z,5.90
2023-04-12T05:40:44.292Z,5.90
2023-04-12T05:43:13.550Z,5.90
2023-04-12T05:45:41.885Z,6.00
2023-04-12T05:48:10.361Z,6.20
2023-04-12T05:50:38.148Z,6.10
2023-04-12T05:53:05.992Z,6.10
2023-04-12T05:55:37.260Z,6.10
2023-04-12T05:58:06.583Z,6.20
2023-04-12T06:00:33.969Z,6.00
2023-04-12T06:03:01.372Z,6.10
2023-04-12T06:05:29.078Z,6.10
2023-04-12T06:07:59.921Z,6.60
2023-04-12T06:10:27.382Z,7.40
2023-04-12T06:12:56.023Z,6.60
2023-04-12T06:15:23.646Z,6.60
2023-04-12T06:17:55.319Z,6.40
2023-04-12T06:20:22.777Z,6.70
2023-04-12T06:22:50.486Z,6.70
2023-04-12T06:25:18.335Z,7.00
2023-04-12T06:32:45.294Z,7.10
2023-04-12T06:35:12.829Z,7.10
2023-04-12T06:37:40.347Z,7.10
2023-04-12T06:40:08.538Z,7.20
2023-04-12T06:42:36.595Z,7.20
2023-04-12T06:45:04.858Z,7.40
2023-04-12T06:50:00.403Z,7.40
2023-04-12T06:52:27.784Z,7.40
2023-04-12T06:54:57.072Z,7.50
2023-04-12T06:57:24.576Z,7.50
2023-04-12T06:59:52.220Z,7.70
2023-04-12T07:02:19.738Z,7.70
2023-04-12T07:04:47.361Z,8.00
2023-04-12T07:07:14.665Z,7.70
2023-04-12T07:09:43.014Z,7.50
2023-04-12T07:12:10.357Z,8.80
2023-04-12T07:17:05.854Z,7.70
2023-04-12T07:19:33.169Z,7.70
2023-04-12T07:22:01.030Z,8.40
2023-04-12T07:24:28.387Z,8.00
2023-04-12T07:26:55.838Z,8.00
2023-04-12T07:31:51.441Z,8.30
2023-04-12T07:34:19.086Z,9.10
2023-04-12T07:36:46.461Z,9.40
2023-04-12T07:41:46.305Z,8.10
2023-04-12T07:44:14.060Z,8.10
2023-04-12T07:46:41.963Z,7.80
2023-04-12T07:49:10.648Z,8.00
2023-04-12T07:51:38.743Z,8.30
2023-04-12T07:54:06.376Z,8.00
2023-04-12T07:56:36.588Z,8.20
2023-04-12T07:59:03.955Z,8.20
2023-04-12T08:01:32.843Z,9.10
2023-04-12T08:04:00.470Z,8.40
2023-04-12T08:08:59.705Z,8.40
2023-04-12T08:13:54.706Z,8.50
2023-04-12T08:16:22.161Z,9.50
2023-04-12T08:18:49.489Z,8.70
2023-04-12T08:21:17.055Z,8.50
2023-04-12T08:23:44.489Z,8.50
2023-04-12T08:26:13.339Z,8.60
2023-04-12T08:28:40.770Z,8.70
2023-04-12T08:33:36.289Z,9.90
2023-04-12T08:36:04.013Z,8.90
2023-04-12T08:38:44.764Z,9.10
2023-04-12T08:41:14.570Z,9.20
2023-04-12T08:43:47.710Z,9.70
2023-04-12T08:46:15.968Z,10.20
2023-04-12T08:48:48.722Z,9.90
2023-04-12T08:51:17.877Z,9.80
2023-04-12T08:53:45.462Z,9.80
2023-04-12T08:56:14.131Z,9.70
2023-04-12T08:58:46.670Z,10.00
2023-04-12T09:01:19.079Z,9.80
2023-04-12T09:03:47.044Z,10.50
2023-04-12T09:08:56.411Z,9.50
2023-04-12T09:11:26.980Z,9.20
2023-04-12T09:13:58.918Z,9.00
2023-04-12T09:16:42.745Z,8.70
2023-04-12T09:19:10.380Z,8.90
2023-04-12T09:21:55.362Z,8.90
2023-04-12T09:27:07.173Z,8.70
2023-04-12T09:29:34.880Z,8.90
2023-04-12T09:32:04.887Z,8.70
2023-04-12T09:34:34.137Z,8.80
2023-04-12T09:37:14.287Z,8.80
2023-04-12T09:39:42.334Z,8.60
2023-04-12T09:42:29.936Z,9.20
2023-04-12T09:45:18.692Z,9.10
2023-04-12T09:47:46.794Z,9.30
2023-04-12T09:50:28.907Z,9.20
2023-04-12T09:52:58.950Z,9.30
2023-04-12T09:55:28.188Z,9.70
2023-04-12T09:57:56.715Z,9.90
2023-04-12T10:00:26.934Z,9.70
2023-04-12T10:02:56.425Z,10.30
2023-04-12T10:05:26.529Z,10.00
2023-04-12T10:07:56.627Z,10.10
2023-04-12T10:10:28.645Z,10.10
2023-04-12T10:12:56.558Z,10.00
2023-04-12T10:15:25.605Z,10.70
2023-04-12T10:17:59.069Z,10.50
2023-04-12T10:20:29.814Z,10.70
2023-04-12T10:22:59.841Z,10.60
2023-04-12T10:25:33.120Z,10.70
2023-04-12T10:28:21.418Z,10.80
2023-04-12T10:30:51.123Z,10.60
2023-04-12T10:33:25.864Z,10.60
2023-04-12T10:35:57.766Z,10.50
2023-04-12T10:38:28.152Z,10.90
2023-04-12T10:41:18.222Z,10.60
2023-04-12T10:43:47.676Z,11.10
2023-04-12T10:46:44.147Z,10.90
2023-04-12T10:49:13.795Z,11.00
2023-04-12T10:52:02.413Z,11.20
2023-04-12T10:54:30.304Z,11.30
2023-04-12T10:56:59.076Z,11.10
2023-04-12T10:59:57.237Z,11.40
2023-04-12T11:05:11.379Z,10.50
2023-04-12T11:08:09.250Z,11.40
2023-04-12T11:11:22.987Z,11.50
2023-04-12T11:13:56.266Z,12.10
2023-04-12T11:16:25.567Z,11.80
2023-04-12T11:18:57.812Z,11.90
2023-04-12T11:21:29.223Z,11.80
2023-04-12T11:24:06.495Z,11.70
2023-04-12T11:26:34.786Z,11.60
2023-04-12T11:29:08.174Z,13.00
2023-04-12T11:31:39.795Z,11.60
2023-04-12T11:34:08.734Z,12.00
2023-04-12T11:36:36.778Z,12.20
2023-04-12T11:39:04.537Z,12.30
2023-04-12T11:41:33.340Z,12.10
2023-04-12T11:44:00.955Z,12.00
2023-04-12T11:46:37.176Z,11.70
2023-04-12T11:49:06.962Z,11.30
2023-04-12T11:51:35.929Z,11.10
2023-04-12T11:54:04.441Z,11.20
2023-04-12T11:59:34.979Z,12.10
2023-04-12T12:02:20.952Z,12.40
2023-04-12T12:04:59.029Z,12.70
2023-04-12T12:07:27.877Z,12.60
2023-04-12T12:09:59.703Z,12.40
2023-04-12T12:12:28.002Z,12.00
2023-04-12T12:15:00.620Z,11.60
2023-04-12T12:17:38.929Z,11.80
2023-04-12T12:20:25.005Z,12.20
2023-04-12T12:22:56.546Z,11.50
2023-04-12T12:25:24.381Z,11.70
2023-04-12T12:27:57.929Z,10.60
2023-04-12T12:30:25.656Z,11.20
2023-04-12T12:32:53.089Z,9.10
2023-04-12T12:35:20.783Z,8.70
2023-04-12T12:37:53.477Z,8.60
2023-04-12T12:40:33.525Z,9.20
2023-04-12T12:43:02.833Z,10.20
2023-04-12T12:45:32.225Z,10.10
2023-04-12T12:48:04.265Z,11.90
2023-04-12T12:50:34.177Z,11.10
2023-04-12T12:53:02.797Z,11.50
2023-04-12T12:55:31.200Z,12.00
2023-04-12T12:58:06.802Z,12.40
2023-04-12T13:00:35.316Z,12.70
2023-04-12T13:03:09.578Z,13.00
2023-04-12T13:05:46.185Z,12.10
2023-04-12T13:08:13.692Z,13.10
2023-04-12T13:10:41.415Z,13.00
2023-04-12T13:16:07.299Z,12.50
2023-04-12T13:18:38.336Z,11.90
2023-04-12T13:21:07.952Z,11.00
2023-04-12T13:23:41.560Z,11.10
2023-04-12T13:26:09.734Z,11.40
2023-04-12T13:28:37.321Z,11.20
2023-04-12T13:31:09.479Z,11.50
2023-04-12T13:33:49.171Z,11.20
2023-04-12T13:36:16.621Z,11.30
2023-04-12T13:38:43.895Z,9.50
2023-04-12T13:41:11.445Z,9.10
2023-04-12T13:43:38.761Z,8.80
2023-04-12T13:46:07.168Z,8.60
2023-04-12T13:48:34.801Z,8.90
2023-04-12T13:51:03.087Z,8.90
2023-04-12T13:53:31.059Z,8.70
2023-04-12T13:55:58.370Z,9.00
2023-04-12T13:58:25.989Z,9.00
2023-04-12T14:00:56.151Z,9.20
2023-04-12T14:03:23.702Z,9.30
2023-04-12T14:05:51.792Z,9.00
2023-04-12T14:08:19.202Z,8.60
2023-04-12T14:10:46.607Z,8.20
2023-04-12T14:13:13.961Z,8.10
2023-04-12T14:15:42.167Z,8.50
2023-04-12T14:18:09.530Z,7.60
2023-04-12T14:20:36.902Z,7.80
2023-04-12T14:23:06.481Z,7.60
2023-04-12T14:25:41.996Z,7.60
2023-04-12T14:28:10.356Z,7.40
2023-04-12T14:30:40.885Z,7.60
2023-04-12T14:33:08.432Z,7.90
2023-04-12T14:35:35.876Z,8.20
2023-04-12T14:40:32.317Z,7.20
2023-04-12T14:42:59.670Z,7.10
2023-04-12T14:45:27.572Z,6.70
2023-04-12T14:47:54.974Z,6.70
2023-04-12T14:50:22.472Z,6.70
2023-04-12T14:52:50.172Z,6.80
2023-04-12T14:55:17.845Z,7.20
2023-04-12T14:57:45.206Z,7.80
2023-04-12T15:00:14.362Z,8.40
2023-04-12T15:05:11.910Z,7.70
2023-04-12T15:07:39.221Z,7.20
2023-04-12T15:10:07.234Z,7.30
2023-04-12T15:12:35.463Z,7.40
2023-04-12T15:15:06.207Z,8.80
2023-04-12T15:17:37.261Z,8.40
2023-04-12T15:20:17.295Z,7.40
2023-04-12T15:22:44.693Z,7.30
2023-04-12T15:25:12.135Z,7.30
2023-04-12T15:27:39.658Z,7.70
2023-04-12T15:30:12.200Z,8.30
2023-04-12T15:32:42.392Z,7.50
2023-04-12T15:35:25.118Z,7.40
2023-04-12T15:37:55.084Z,7.20
2023-04-12T15:40:22.784Z,7.40
2023-04-12T15:42:50.668Z,7.60
2023-04-12T15:47:46.160Z,8.30
2023-04-12T15:50:14.158Z,8.00
2023-04-12T15:52:43.350Z,8.60
2023-04-12T15:55:11.633Z,6.90
2023-04-12T15:57:39.214Z,6.80
2023-04-12T16:00:20.926Z,7.10
2023-04-12T16:02:54.842Z,6.80
2023-04-12T16:05:24.701Z,8.00
2023-04-12T16:07:53.155Z,7.10
2023-04-12T16:10:22.419Z,7.00
2023-04-12T16:12:54.030Z,7.10
2023-04-12T16:15:21.659Z,7.20
2023-04-12T16:17:52.027Z,9.30
2023-04-12T16:20:22.787Z,9.20
2023-04-12T16:22:54.466Z,9.40
2023-04-12T16:25:25.795Z,9.80
2023-04-12T16:27:55.477Z,9.20
2023-04-12T16:30:23.254Z,8.50
2023-04-12T16:32:51.416Z,8.70
2023-04-12T16:35:19.046Z,8.40
2023-04-12T16:37:47.642Z,8.70
2023-04-12T16:40:16.819Z,8.80
2023-04-12T16:42:44.997Z,9.50
2023-04-12T16:45:15.211Z,9.00
2023-04-12T16:47:42.770Z,9.10
2023-04-12T16:50:12.879Z,9.30
2023-04-12T16:52:41.533Z,8.80
2023-04-12T16:55:12.995Z,8.50
2023-04-12T16:57:41.694Z,8.30
2023-04-12T17:00:22.179Z,8.20
2023-04-12T17:02:51.228Z,8.00
2023-04-12T17:05:19.921Z,8.00
2023-04-12T17:07:49.769Z,8.00
2023-04-12T17:10:18.788Z,7.90
2023-04-12T17:12:54.112Z,8.00
2023-04-12T17:15:22.336Z,8.50
2023-04-12T17:17:51.973Z,8.30
2023-04-12T17:20:21.049Z,7.90
2023-04-12T17:22:50.238Z,8.00
2023-04-12T17:25:19.014Z,8.00
2023-04-12T17:27:48.631Z,8.10
2023-04-12T17:30:17.695Z,7.80
2023-04-12T17:32:48.618Z,8.30
2023-04-12T17:35:17.366Z,8.40
2023-04-12T17:37:45.762Z,8.00
2023-04-12T17:40:16.086Z,8.40
2023-04-12T17:42:44.132Z,8.20
2023-04-12T17:45:12.881Z,8.40
2023-04-12T17:47:41.496Z,8.10
2023-04-12T17:50:10.667Z,8.40
2023-04-12T17:52:38.424Z,8.20
2023-04-12T17:55:07.424Z,8.00
2023-04-12T17:57:35.016Z,8.10
2023-04-12T18:00:02.724Z,8.10
2023-04-12T18:02:40.790Z,7.90
2023-04-12T18:05:08.711Z,8.00
2023-04-12T18:07:37.097Z,8.00
2023-04-12T18:10:05.496Z,8.00
2023-04-12T18:12:33.018Z,8.00
2023-04-12T18:15:00.379Z,9.20
2023-04-12T18:17:27.720Z,8.20
2023-04-12T18:19:55.131Z,8.00
2023-04-12T18:22:22.591Z,8.00
2023-04-12T18:24:49.957Z,8.60
2023-04-12T18:27:17.318Z,7.80
2023-04-12T18:29:44.816Z,8.10
2023-04-12T18:32:12.358Z,8.20
2023-04-12T18:34:39.643Z,8.20
2023-04-12T18:37:08.540Z,7.80
2023-04-12T18:39:36.562Z,7.70
2023-04-12T18:42:04.984Z,7.60
2023-04-12T18:44:32.552Z,7.50
2023-04-12T18:47:00.057Z,7.10
2023-04-12T18:49:27.962Z,7.40
2023-04-12T18:51:58.613Z,8.90
2023-04-12T18:54:27.857Z,7.10
2023-04-12T18:56:57.815Z,7.10
2023-04-12T18:59:25.265Z,7.20
2023-04-12T19:01:52.665Z,7.10
2023-04-12T19:04:20.221Z,7.20
2023-04-12T19:06:49.207Z,7.10
2023-04-12T19:09:16.503Z,7.00
2023-04-12T19:11:43.953Z,7.00
2023-04-12T19:14:11.587Z,7.70
2023-04-12T19:16:39.007Z,7.10
2023-04-12T19:19:06.468Z,7.20
2023-04-12T19:21:34.087Z,7.30
2023-04-12T19:24:01.819Z,7.00
2023-04-12T19:26:30.245Z,7.20
2023-04-12T19:28:58.833Z,7.00
2023-04-12T19:31:26.512Z,7.20
2023-04-12T19:33:57.446Z,6.90
2023-04-12T19:36:25.623Z,6.90
2023-04-12T19:38:52.978Z,6.80
2023-04-12T19:41:20.817Z,7.10
2023-04-12T19:43:48.428Z,8.40
2023-04-12T19:46:17.664Z,7.10
2023-04-12T19:48:46.295Z,7.40
2023-04-12T19:51:15.340Z,7.20
2023-04-12T19:53:42.886Z,7.00
2023-04-12T19:56:15.275Z,7.00
2023-04-12T19:58:44.425Z,7.10
2023-04-12T20:01:13.636Z,7.10
2023-04-12T20:03:43.672Z,7.00
2023-04-12T20:06:12.351Z,6.90
2023-04-12T20:08:39.625Z,6.90
2023-04-12T20:11:07.588Z,7.10
2023-04-12T20:13:36.212Z,9.00
2023-04-12T20:18:31.836Z,7.20
2023-04-12T20:20:59.343Z,7.10
2023-04-12T20:23:28.249Z,7.90
2023-04-12T20:25:55.737Z,7.50
2023-04-12T20:28:23.438Z,7.50
2023-04-12T20:30:51.004Z,7.20
2023-04-12T20:33:19.876Z,7.30
2023-04-12T20:35:47.302Z,7.70
2023-04-12T20:38:15.112Z,7.40
2023-04-12T20:43:10.840Z,7.60
2023-04-12T20:45:38.640Z,7.50
2023-04-12T20:48:06.014Z,7.50
2023-04-12T20:50:33.451Z,8.20
2023-04-12T20:53:00.926Z,7.50
2023-04-12T20:55:34.066Z,7.40
2023-04-12T20:58:03.076Z,7.50
2023-04-12T21:00:31.385Z,7.70
2023-04-12T21:05:33.652Z,7.30
2023-04-12T21:08:01.233Z,7.70
2023-04-12T21:10:28.595Z,7.60
2023-04-12T21:12:56.034Z,7.50
2023-04-12T21:15:23.533Z,7.80
2023-04-12T21:17:52.360Z,7.80
2023-04-12T21:20:20.012Z,7.60
2023-04-12T21:22:50.740Z,8.80
2023-04-12T21:25:18.104Z,7.70
2023-04-12T21:27:47.095Z,7.70
2023-04-12T21:30:14.631Z,8.50
2023-04-12T21:32:43.821Z,7.60
2023-04-12T21:35:11.728Z,7.90
2023-04-12T21:37:39.684Z,7.60
2023-04-12T21:40:09.361Z,8.30
2023-04-12T21:42:37.845Z,8.40
2023-04-12T21:45:06.301Z,7.80
2023-04-12T21:47:33.908Z,7.50
2023-04-12T21:50:02.187Z,7.60
2023-04-12T21:54:57.231Z,7.50
2023-04-12T21:57:24.615Z,7.50
2023-04-12T21:59:51.909Z,7.80
2023-04-12T22:02:19.326Z,7.50
2023-04-12T22:04:46.887Z,7.20
2023-04-12T22:07:17.367Z,8.10
2023-04-12T22:09:46.091Z,7.80
2023-04-12T22:12:13.547Z,7.30
2023-04-12T22:17:14.804Z,7.40
2023-04-12T22:19:42.270Z,7.40
2023-04-12T22:22:10.824Z,7.30
2023-04-12T22:24:38.833Z,7.30
2023-04-12T22:27:06.941Z,7.50
2023-04-12T22:29:34.582Z,7.50
2023-04-12T22:32:02.515Z,7.20
2023-04-12T22:34:29.826Z,7.30
2023-04-12T22:37:01.358Z,7.20
2023-04-12T22:39:29.023Z,8.40
2023-04-12T22:41:57.456Z,7.30
2023-04-12T22:44:26.078Z,7.30
2023-04-12T22:46:55.009Z,7.50
2023-04-12T22:49:28.433Z,7.40
2023-04-12T22:51:56.226Z,7.20
2023-04-12T22:54:24.808Z,7.40
2023-04-12T22:59:23.011Z,7.40
2023-04-12T23:04:18.494Z,7.30
2023-04-12T23:06:47.231Z,7.30
2023-04-12T23:09:15.778Z,7.30
2023-04-12T23:11:43.672Z,8.50
2023-04-12T23:14:10.902Z,8.20
2023-04-12T23:16:44.021Z,7.40
2023-04-12T23:19:12.195Z,7.30
2023-04-12T23:21:41.128Z,7.70
2023-04-12T23:24:11.429Z,7.60
2023-04-12T23:29:06.523Z,7.60
2023-04-12T23:31:33.888Z,8.90
2023-04-12T23:34:02.852Z,7.30
2023-04-12T23:36:30.578Z,8.10
2023-04-12T23:39:03.631Z,8.00
2023-04-12T23:41:32.073Z,8.10
2023-04-12T23:44:00.141Z,8.90
2023-04-12T23:46:28.136Z,7.60
2023-04-12T23:48:56.329Z,7.30
2023-04-12T23:51:23.655Z,7.30
2023-04-12T23:53:51.116Z,7.40
2023-04-12T23:56:18.409Z,7.30
2023-04-12T23:58:47.160Z,7.70
